createdAt,value
2023-03-12T00:02:21.418Z,77.40
2023-03-12T00:04:48.229Z,77.65
2023-03-12T00:07:14.861Z,77.20
2023-03-12T00:09:41.458Z,77.50
2023-03-12T00:12:08.436Z,77.27
2023-03-12T00:14:36.042Z,77.39
2023-03-12T00:17:02.590Z,77.04
2023-03-12T00:19:29.256Z,76.29
2023-03-12T00:21:55.861Z,76.44
2023-03-12T00:24:22.480Z,76.21
2023-03-12T00:26:49.079Z,76.44
2023-03-12T00:29:15.730Z,76.32
2023-03-12T00:31:42.371Z,76.66
2023-03-12T00:34:09.593Z,76.68
2023-03-12T00:36:36.217Z,76.20
2023-03-12T00:39:03.399Z,76.32
2023-03-12T00:41:30.520Z,75.78
2023-03-12T00:43:57.836Z,76.09
2023-03-12T00:46:25.160Z,75.92
2023-03-12T00:48:51.840Z,76.34
2023-03-12T00:51:19.258Z,76.19
2023-03-12T00:53:46.084Z,76.53
2023-03-12T00:56:12.946Z,76.37
2023-03-12T00:58:39.717Z,76.45
2023-03-12T01:01:06.479Z,76.20
2023-03-12T01:03:33.503Z,75.94
2023-03-12T01:06:00.257Z,76.41
2023-03-12T01:08:27.118Z,76.15
2023-03-12T01:10:54.054Z,76.14
2023-03-12T01:13:20.665Z,76.43
2023-03-12T01:15:47.315Z,76.50
2023-03-12T01:18:13.915Z,76.56
2023-03-12T01:20:41.057Z,76.43
2023-03-12T01:23:08.916Z,76.23
2023-03-12T01:25:36.622Z,76.21
2023-03-12T01:28:03.675Z,76.13
2023-03-12T01:30:30.894Z,76.57
2023-03-12T01:32:58.300Z,75.88
2023-03-12T01:35:25.088Z,75.74
2023-03-12T01:37:53.012Z,75.96
2023-03-12T01:40:25.409Z,75.89
2023-03-12T01:42:57.518Z,76.46
2023-03-12T01:46:01.769Z,76.17
2023-03-12T01:48:45.878Z,76.20
2023-03-12T01:51:15.963Z,76.41
2023-03-12T01:53:47.173Z,75.71
2023-03-12T01:56:17.355Z,75.85
2023-03-12T01:58:52.919Z,75.63
2023-03-12T02:01:20.277Z,75.48
2023-03-12T02:03:50.839Z,75.68
2023-03-12T02:06:21.207Z,75.10
2023-03-12T02:08:48.296Z,75.27
2023-03-12T02:11:15.002Z,75.15
2023-03-12T02:13:42.044Z,75.15
2023-03-12T02:16:09.867Z,75.02
2023-03-12T02:18:36.585Z,75.29
2023-03-12T02:21:18.157Z,74.60
2023-03-12T02:23:57.474Z,75.31
2023-03-12T02:26:29.000Z,75.62
2023-03-12T02:28:59.126Z,75.55
2023-03-12T02:31:29.682Z,75.52
2023-03-12T02:34:00.522Z,75.63
2023-03-12T02:36:28.010Z,75.45
2023-03-12T02:38:55.699Z,74.83
2023-03-12T02:41:34.494Z,74.66
2023-03-12T02:44:11.723Z,74.69
2023-03-12T02:46:47.243Z,74.91
2023-03-12T02:49:14.372Z,74.95
2023-03-12T02:51:42.939Z,75.29
2023-03-12T02:54:10.864Z,75.16
2023-03-12T02:56:38.064Z,75.14
2023-03-12T02:59:06.539Z,74.91
2023-03-12T03:01:36.957Z,74.72
2023-03-12T03:04:06.038Z,74.96
2023-03-12T03:06:33.784Z,75.27
2023-03-12T03:09:00.405Z,75.61
2023-03-12T03:11:27.224Z,75.14
2023-03-12T03:13:55.798Z,74.84
2023-03-12T03:16:24.150Z,75.25
2023-03-12T03:18:51.206Z,74.36
2023-03-12T03:21:18.160Z,74.73
2023-03-12T03:23:47.403Z,74.18
2023-03-12T03:26:15.521Z,74.19
2023-03-12T03:31:08.224Z,74.26
2023-03-12T03:33:38.166Z,74.07
2023-03-12T03:36:07.773Z,74.53
2023-03-12T03:38:38.615Z,74.40
2023-03-12T03:41:06.389Z,74.38
2023-03-12T03:43:37.151Z,75.02
2023-03-12T03:46:05.747Z,74.78
2023-03-12T03:48:36.014Z,73.94
2023-03-12T03:51:05.024Z,74.47
2023-03-12T03:53:34.480Z,74.35
2023-03-12T03:56:13.782Z,74.38
2023-03-12T03:58:44.641Z,73.89
2023-03-12T04:01:14.485Z,73.50
2023-03-12T04:03:41.970Z,73.75
2023-03-12T04:06:09.220Z,73.41
2023-03-12T04:08:37.245Z,72.77
2023-03-12T04:11:14.957Z,73.14
2023-03-12T04:13:42.511Z,72.92
2023-03-12T04:16:10.385Z,72.90
2023-03-12T04:18:37.681Z,73.06
2023-03-12T04:21:07.034Z,72.90
2023-03-12T04:23:37.212Z,73.19
2023-03-12T04:26:05.199Z,72.79
2023-03-12T04:28:32.385Z,73.15
2023-03-12T04:31:01.538Z,73.42
2023-03-12T04:33:39.299Z,73.29
2023-03-12T04:36:07.299Z,73.17
2023-03-12T04:38:35.862Z,73.24
2023-03-12T04:41:12.046Z,73.17
2023-03-12T04:43:44.205Z,72.93
2023-03-12T04:46:11.444Z,73.15
2023-03-12T04:48:38.837Z,73.35
2023-03-12T04:51:06.751Z,73.19
2023-03-12T04:53:33.716Z,73.62
2023-03-12T04:56:00.468Z,74.93
2023-03-12T04:58:28.429Z,75.88
2023-03-12T05:00:55.250Z,77.41
2023-03-12T05:03:22.043Z,77.83
2023-03-12T05:05:48.908Z,77.99
2023-03-12T05:08:15.742Z,78.13
2023-03-12T05:10:45.368Z,77.91
2023-03-12T05:13:16.393Z,76.28
2023-03-12T05:15:44.415Z,76.00
2023-03-12T05:18:11.498Z,75.97
2023-03-12T05:20:38.318Z,75.17
2023-03-12T05:23:05.689Z,74.35
2023-03-12T05:25:32.463Z,74.41
2023-03-12T05:27:59.612Z,73.99
2023-03-12T05:30:26.382Z,74.08
2023-03-12T05:32:53.156Z,73.35
2023-03-12T05:35:19.871Z,73.56
2023-03-12T05:37:46.747Z,73.67
2023-03-12T05:40:14.093Z,73.07
2023-03-12T05:42:40.837Z,73.39
2023-03-12T05:45:09.373Z,72.62
2023-03-12T05:47:37.645Z,72.23
2023-03-12T05:50:04.730Z,72.78
2023-03-12T05:52:31.313Z,72.08
2023-03-12T05:54:58.466Z,71.71
2023-03-12T05:57:25.164Z,71.78
2023-03-12T05:59:51.838Z,71.88
2023-03-12T06:02:18.569Z,71.88
2023-03-12T06:04:45.448Z,71.84
2023-03-12T06:07:12.287Z,71.72
2023-03-12T06:09:39.566Z,71.67
2023-03-12T06:12:06.360Z,71.61
2023-03-12T06:14:33.121Z,71.55
2023-03-12T06:17:00.559Z,72.33
2023-03-12T06:19:27.246Z,71.89
2023-03-12T06:21:53.823Z,70.73
2023-03-12T06:24:20.788Z,71.06
2023-03-12T06:26:55.028Z,70.71
2023-03-12T06:29:21.678Z,70.40
2023-03-12T06:31:48.410Z,70.31
2023-03-12T06:34:16.798Z,69.76
2023-03-12T06:36:43.625Z,69.97
2023-03-12T06:39:10.236Z,69.71
2023-03-12T06:41:36.909Z,69.42
2023-03-12T06:44:06.272Z,69.12
2023-03-12T06:46:33.607Z,68.60
2023-03-12T06:49:00.360Z,68.36
2023-03-12T06:51:27.467Z,68.24
2023-03-12T06:53:54.110Z,67.67
2023-03-12T06:56:20.716Z,68.02
2023-03-12T06:58:47.317Z,67.55
2023-03-12T07:01:14.025Z,67.37
2023-03-12T07:03:40.674Z,67.17
2023-03-12T07:06:16.905Z,66.71
2023-03-12T07:08:44.334Z,66.47
2023-03-12T07:11:11.200Z,66.52
2023-03-12T07:13:37.971Z,66.69
2023-03-12T07:16:05.479Z,66.24
2023-03-12T07:18:32.179Z,65.75
2023-03-12T07:20:58.765Z,65.15
2023-03-12T07:23:25.631Z,64.85
2023-03-12T07:25:52.906Z,65.28
2023-03-12T07:28:21.598Z,65.08
2023-03-12T07:30:51.680Z,64.64
2023-03-12T07:33:20.791Z,64.17
2023-03-12T07:35:50.969Z,64.38
2023-03-12T07:38:18.724Z,64.00
2023-03-12T07:40:45.520Z,63.62
2023-03-12T07:43:12.813Z,62.38
2023-03-12T07:45:41.313Z,62.63
2023-03-12T07:48:08.291Z,63.03
2023-03-12T07:50:37.781Z,62.26
2023-03-12T07:53:05.389Z,62.15
2023-03-12T07:55:33.994Z,62.90
2023-03-12T07:58:01.590Z,60.66
2023-03-12T08:00:29.265Z,61.05
2023-03-12T08:02:56.996Z,61.33
2023-03-12T08:05:24.941Z,60.69
2023-03-12T08:07:52.761Z,60.95
2023-03-12T08:10:20.460Z,59.98
2023-03-12T08:12:47.239Z,61.16
2023-03-12T08:15:14.836Z,59.85
2023-03-12T08:17:41.600Z,60.82
2023-03-12T08:20:10.358Z,60.19
2023-03-12T08:22:37.369Z,59.97
2023-03-12T08:25:05.194Z,61.55
2023-03-12T08:27:32.114Z,61.18
2023-03-12T08:29:58.876Z,59.14
2023-03-12T08:32:25.703Z,60.50
2023-03-12T08:34:52.456Z,58.58
2023-03-12T08:37:19.354Z,59.36
2023-03-12T08:39:45.968Z,58.60
2023-03-12T08:42:12.886Z,58.54
2023-03-12T08:44:39.611Z,58.31
2023-03-12T08:47:06.375Z,56.84
2023-03-12T08:49:33.121Z,57.32
2023-03-12T08:52:00.632Z,57.17
2023-03-12T08:54:27.240Z,58.08
2023-03-12T08:56:53.976Z,58.37
2023-03-12T08:59:22.282Z,57.01
2023-03-12T09:01:49.222Z,57.06
2023-03-12T09:04:17.116Z,56.22
2023-03-12T09:06:44.368Z,57.09
2023-03-12T09:09:11.275Z,56.76
2023-03-12T09:11:42.516Z,55.13
2023-03-12T09:17:01.493Z,54.08
2023-03-12T09:19:29.265Z,54.24
2023-03-12T09:21:55.931Z,53.99
2023-03-12T09:24:23.763Z,55.25
2023-03-12T09:26:55.583Z,53.95
2023-03-12T09:29:26.364Z,54.64
2023-03-12T09:31:54.604Z,52.49
2023-03-12T09:34:21.352Z,52.85
2023-03-12T09:36:48.232Z,52.18
2023-03-12T09:39:14.919Z,53.77
2023-03-12T09:41:47.949Z,54.59
2023-03-12T09:44:36.280Z,49.48
2023-03-12T09:47:09.245Z,47.64
2023-03-12T09:49:42.938Z,47.16
2023-03-12T09:52:30.663Z,48.38
2023-03-12T09:55:17.593Z,43.12
2023-03-12T09:57:46.379Z,44.77
2023-03-12T10:00:16.188Z,42.72
2023-03-12T10:03:09.597Z,42.30
2023-03-12T10:06:05.039Z,40.96
2023-03-12T10:08:56.504Z,39.01
2023-03-12T10:11:39.172Z,39.70
2023-03-12T10:14:13.100Z,39.42
2023-03-12T10:17:13.306Z,34.21
2023-03-12T10:20:05.649Z,33.91
2023-03-12T10:22:38.523Z,33.56
2023-03-12T10:25:11.126Z,35.89
2023-03-12T10:27:37.776Z,35.56
2023-03-12T10:30:17.691Z,34.30
2023-03-12T10:32:50.527Z,36.09
2023-03-12T10:35:22.022Z,36.03
2023-03-12T10:37:59.104Z,35.23
2023-03-12T10:40:28.457Z,36.70
2023-03-12T10:42:55.381Z,38.85
2023-03-12T10:45:25.110Z,33.33
2023-03-12T10:48:00.839Z,30.41
2023-03-12T10:50:32.934Z,32.66
2023-03-12T10:53:22.611Z,30.93
2023-03-12T10:56:07.643Z,32.74
2023-03-12T10:58:41.855Z,31.62
2023-03-12T11:01:31.614Z,31.59
2023-03-12T11:04:18.737Z,32.79
2023-03-12T11:07:14.597Z,34.40
2023-03-12T11:09:41.252Z,34.72
2023-03-12T11:12:28.572Z,34.93
2023-03-12T11:14:55.168Z,35.73
2023-03-12T11:17:32.901Z,36.35
2023-03-12T11:19:59.516Z,36.90
2023-03-12T11:22:34.884Z,36.83
2023-03-12T11:25:07.097Z,35.87
2023-03-12T11:27:46.215Z,36.02
2023-03-12T11:30:16.477Z,35.17
2023-03-12T11:32:50.988Z,35.53
2023-03-12T11:35:30.623Z,36.20
2023-03-12T11:38:06.402Z,35.33
2023-03-12T11:40:52.221Z,36.04
2023-03-12T11:43:43.899Z,34.37
2023-03-12T11:46:44.604Z,30.83
2023-03-12T11:49:23.275Z,31.76
2023-03-12T11:52:23.738Z,29.40
2023-03-12T11:55:16.791Z,33.63
2023-03-12T11:57:49.596Z,31.23
2023-03-12T12:00:17.491Z,28.91
2023-03-12T12:03:02.513Z,29.50
2023-03-12T12:05:34.909Z,29.62
2023-03-12T12:08:07.162Z,28.95
2023-03-12T12:10:48.675Z,29.32
2023-03-12T12:13:28.985Z,28.48
2023-03-12T12:16:20.474Z,31.29
2023-03-12T12:18:47.024Z,28.51
2023-03-12T12:21:19.734Z,27.49
2023-03-12T12:24:09.599Z,30.32
2023-03-12T12:26:47.157Z,32.31
2023-03-12T12:29:52.684Z,27.47
2023-03-12T12:32:35.122Z,28.36
2023-03-12T12:35:22.821Z,29.58
2023-03-12T12:38:02.964Z,27.70
2023-03-12T12:40:37.745Z,29.45
2023-03-12T12:43:19.477Z,28.87
2023-03-12T12:45:49.871Z,29.91
2023-03-12T12:48:26.192Z,32.85
2023-03-12T12:50:54.478Z,34.00
2023-03-12T12:53:25.564Z,34.04
2023-03-12T12:56:14.860Z,35.24
2023-03-12T12:59:09.031Z,37.12
2023-03-12T13:01:41.428Z,39.72
2023-03-12T13:04:15.581Z,40.35
2023-03-12T13:07:00.131Z,40.17
2023-03-12T13:09:46.285Z,40.36
2023-03-12T13:12:18.668Z,40.61
2023-03-12T13:14:46.979Z,41.06
2023-03-12T13:17:21.827Z,41.69
2023-03-12T13:20:01.035Z,42.96
2023-03-12T13:22:35.108Z,42.87
2023-03-12T13:25:23.110Z,42.97
2023-03-12T13:27:58.869Z,43.23
2023-03-12T13:30:34.829Z,43.12
2023-03-12T13:33:01.785Z,44.91
2023-03-12T13:35:39.947Z,44.19
2023-03-12T13:38:12.541Z,43.70
2023-03-12T13:40:53.954Z,44.24
2023-03-12T13:43:35.743Z,45.31
2023-03-12T13:46:11.049Z,45.16
2023-03-12T13:48:45.682Z,46.01
2023-03-12T13:51:18.112Z,44.20
2023-03-12T13:53:50.447Z,44.29
2023-03-12T13:56:20.291Z,45.77
2023-03-12T13:59:00.467Z,44.00
2023-03-12T14:01:31.964Z,44.33
2023-03-12T14:04:14.454Z,44.76
2023-03-12T14:06:49.851Z,45.20
2023-03-12T14:09:40.215Z,44.99
2023-03-12T14:12:43.403Z,43.39
2023-03-12T14:15:32.788Z,43.01
2023-03-12T14:18:04.152Z,44.77
2023-03-12T14:20:38.291Z,45.08
2023-03-12T14:23:09.310Z,44.69
2023-03-12T14:25:43.525Z,45.50
2023-03-12T14:28:21.790Z,45.69
2023-03-12T14:31:07.214Z,46.75
2023-03-12T14:33:45.218Z,46.72
2023-03-12T14:36:18.950Z,47.21
2023-03-12T14:38:48.818Z,47.98
2023-03-12T14:41:31.313Z,48.31
2023-03-12T14:44:07.146Z,49.32
2023-03-12T14:46:33.768Z,50.03
2023-03-12T14:49:00.605Z,50.92
2023-03-12T14:51:30.359Z,51.64
2023-03-12T14:54:02.920Z,52.97
2023-03-12T14:56:35.090Z,53.35
2023-03-12T14:59:21.443Z,54.08
2023-03-12T15:01:48.641Z,56.25
2023-03-12T15:04:22.223Z,58.18
2023-03-12T15:07:04.442Z,60.75
2023-03-12T15:09:34.599Z,62.57
2023-03-12T15:12:04.568Z,63.88
2023-03-12T15:14:35.721Z,65.53
2023-03-12T15:17:05.085Z,66.01
2023-03-12T15:19:35.961Z,66.48
2023-03-12T15:22:04.574Z,67.11
2023-03-12T15:24:38.423Z,68.20
2023-03-12T15:27:29.665Z,68.45
2023-03-12T15:29:58.263Z,68.47
2023-03-12T15:32:26.964Z,68.89
2023-03-12T15:34:56.115Z,69.74
2023-03-12T15:37:33.722Z,70.26
2023-03-12T15:40:02.524Z,70.15
2023-03-12T15:42:29.496Z,70.41
2023-03-12T15:45:04.917Z,70.42
2023-03-12T15:47:39.308Z,71.42
2023-03-12T15:50:16.951Z,71.37
2023-03-12T15:52:59.239Z,71.18
2023-03-12T15:55:29.660Z,71.34
2023-03-12T15:57:58.558Z,72.26
2023-03-12T16:00:28.466Z,72.38
2023-03-12T16:03:05.948Z,72.38
2023-03-12T16:05:36.956Z,72.65
2023-03-12T16:08:14.728Z,72.35
2023-03-12T16:10:42.070Z,73.44
2023-03-12T16:13:12.735Z,73.34
2023-03-12T16:15:39.971Z,73.56
2023-03-12T16:18:12.736Z,72.61
2023-03-12T16:20:39.385Z,72.51
2023-03-12T16:23:05.992Z,72.79
2023-03-12T16:25:34.048Z,73.45
2023-03-12T16:28:04.289Z,73.18
2023-03-12T16:30:34.329Z,72.20
2023-03-12T16:33:04.951Z,72.44
2023-03-12T16:35:33.390Z,72.55
2023-03-12T16:38:03.158Z,73.13
2023-03-12T16:40:34.207Z,72.48
2023-03-12T16:43:03.856Z,72.20
2023-03-12T16:45:35.762Z,72.51
2023-03-12T16:48:06.197Z,72.30
2023-03-12T16:50:32.867Z,71.94
2023-03-12T16:53:00.711Z,72.22
2023-03-12T16:55:30.258Z,72.33
2023-03-12T16:58:00.186Z,72.17
2023-03-12T17:00:30.204Z,72.22
2023-03-12T17:02:57.995Z,72.08
2023-03-12T17:05:29.891Z,72.44
2023-03-12T17:07:57.581Z,72.45
2023-03-12T17:10:25.713Z,72.27
2023-03-12T17:12:53.815Z,72.46
2023-03-12T17:15:22.299Z,72.23
2023-03-12T17:17:50.953Z,72.45
2023-03-12T17:20:19.641Z,72.36
2023-03-12T17:22:47.127Z,72.40
2023-03-12T17:25:29.495Z,72.37
2023-03-12T17:27:57.262Z,72.33
2023-03-12T17:30:24.209Z,72.80
2023-03-12T17:32:51.651Z,72.66
2023-03-12T17:35:19.451Z,72.96
2023-03-12T17:37:48.420Z,73.00
2023-03-12T17:40:15.823Z,72.95
2023-03-12T17:42:42.411Z,73.02
2023-03-12T17:45:10.148Z,73.23
2023-03-12T17:47:37.478Z,73.70
2023-03-12T17:50:06.328Z,73.34
2023-03-12T17:52:33.406Z,73.64
2023-03-12T17:55:00.557Z,74.24
2023-03-12T17:57:28.109Z,74.50
2023-03-12T17:59:54.689Z,74.86
2023-03-12T18:02:21.603Z,75.07
2023-03-12T18:04:48.377Z,75.38
2023-03-12T18:07:15.104Z,75.16
2023-03-12T18:09:41.706Z,74.82
2023-03-12T18:12:08.615Z,74.97
2023-03-12T18:14:35.452Z,75.15
2023-03-12T18:17:02.044Z,75.34
2023-03-12T18:19:29.435Z,75.12
2023-03-12T18:21:56.095Z,75.48
2023-03-12T18:24:22.700Z,75.34
2023-03-12T18:26:51.604Z,75.68
2023-03-12T18:29:18.403Z,75.47
2023-03-12T18:31:45.065Z,76.22
2023-03-12T18:34:11.760Z,75.92
2023-03-12T18:36:38.433Z,75.93
2023-03-12T18:39:06.560Z,76.07
2023-03-12T18:41:33.435Z,75.90
2023-03-12T18:44:00.669Z,75.74
2023-03-12T18:46:28.169Z,75.93
2023-03-12T18:48:54.860Z,75.91
2023-03-12T18:51:21.773Z,75.96
2023-03-12T18:53:48.375Z,76.09
2023-03-12T18:56:15.036Z,76.29
2023-03-12T18:58:41.939Z,76.41
2023-03-12T19:01:08.519Z,76.40
2023-03-12T19:03:36.412Z,76.94
2023-03-12T19:06:11.867Z,76.56
2023-03-12T19:08:38.773Z,76.77
2023-03-12T19:11:15.855Z,76.99
2023-03-12T19:13:43.529Z,76.71
2023-03-12T19:16:12.477Z,77.11
2023-03-12T19:18:39.671Z,77.00
2023-03-12T19:21:09.559Z,77.08
2023-03-12T19:23:36.533Z,77.20
2023-03-12T19:26:04.024Z,77.04
2023-03-12T19:28:31.474Z,76.69
2023-03-12T19:31:02.379Z,76.85
2023-03-12T19:33:29.580Z,77.17
2023-03-12T19:35:57.764Z,77.05
2023-03-12T19:38:25.361Z,77.11
2023-03-12T19:40:55.432Z,77.03
2023-03-12T19:43:22.639Z,77.48
2023-03-12T19:45:49.313Z,77.30
2023-03-12T19:48:16.063Z,77.49
2023-03-12T19:50:45.020Z,77.97
2023-03-12T19:53:12.534Z,77.94
2023-03-12T19:55:39.243Z,77.88
2023-03-12T19:58:05.963Z,77.72
2023-03-12T20:00:32.631Z,77.85
2023-03-12T20:02:59.722Z,78.05
2023-03-12T20:05:26.387Z,78.09
2023-03-12T20:07:53.347Z,78.16
2023-03-12T20:10:20.698Z,77.99
2023-03-12T20:12:47.484Z,77.54
2023-03-12T20:15:14.268Z,77.78
2023-03-12T20:17:40.902Z,77.87
2023-03-12T20:20:09.130Z,78.04
2023-03-12T20:22:38.618Z,77.84
2023-03-12T20:25:06.220Z,77.81
2023-03-12T20:27:34.200Z,77.52
2023-03-12T20:30:01.077Z,77.98
2023-03-12T20:32:28.736Z,78.03
2023-03-12T20:34:56.452Z,78.21
2023-03-12T20:37:23.315Z,78.01
2023-03-12T20:39:49.989Z,77.97
2023-03-12T20:42:16.664Z,77.74
2023-03-12T20:44:43.374Z,77.81
2023-03-12T20:47:10.030Z,78.13
2023-03-12T20:49:36.733Z,78.21
2023-03-12T20:52:03.599Z,78.27
2023-03-12T20:54:30.298Z,78.29
2023-03-12T20:56:56.910Z,78.65
2023-03-12T20:59:23.473Z,78.27
2023-03-12T21:01:50.489Z,78.32
2023-03-12T21:04:17.123Z,78.34
2023-03-12T21:06:45.011Z,78.34
2023-03-12T21:09:11.814Z,78.29
2023-03-12T21:11:40.092Z,78.34
2023-03-12T21:14:06.666Z,77.73
2023-03-12T21:16:33.328Z,78.14
2023-03-12T21:18:59.942Z,78.31
2023-03-12T21:21:27.728Z,78.12
2023-03-12T21:23:54.364Z,78.20
2023-03-12T21:26:21.938Z,77.96
2023-03-12T21:28:48.516Z,77.75
2023-03-12T21:31:16.910Z,77.69
2023-03-12T21:33:43.698Z,77.97
2023-03-12T21:36:13.041Z,77.62
2023-03-12T21:38:40.888Z,77.89
2023-03-12T21:41:10.680Z,77.84
2023-03-12T21:43:38.044Z,77.51
2023-03-12T21:46:16.056Z,77.83
2023-03-12T21:48:47.761Z,77.84
2023-03-12T21:51:16.304Z,77.90
2023-03-12T21:53:43.379Z,78.20
2023-03-12T21:56:10.080Z,77.94
2023-03-12T21:58:36.959Z,77.57
2023-03-12T22:01:14.201Z,77.42
2023-03-12T22:03:43.324Z,77.62
2023-03-12T22:06:11.169Z,77.64
2023-03-12T22:08:38.777Z,77.05
2023-03-12T22:11:07.463Z,77.58
2023-03-12T22:13:34.461Z,78.00
2023-03-12T22:16:03.397Z,77.94
2023-03-12T22:18:30.274Z,77.85
2023-03-12T22:21:00.605Z,77.88
2023-03-12T22:23:27.904Z,78.03
2023-03-12T22:25:54.502Z,78.01
2023-03-12T22:28:21.531Z,77.44
2023-03-12T22:30:48.187Z,77.67
2023-03-12T22:33:14.804Z,77.66
2023-03-12T22:35:46.191Z,77.56
2023-03-12T22:38:13.394Z,77.71
2023-03-12T22:40:40.446Z,77.50
2023-03-12T22:43:07.231Z,77.49
2023-03-12T22:45:34.326Z,77.51
2023-03-12T22:48:01.344Z,77.43
2023-03-12T22:50:27.980Z,77.55
2023-03-12T22:52:54.606Z,77.55
2023-03-12T22:55:21.174Z,77.62
2023-03-12T22:57:47.801Z,77.66
2023-03-12T23:00:16.854Z,77.52
2023-03-12T23:02:43.512Z,77.35
2023-03-12T23:05:11.013Z,77.07
2023-03-12T23:07:37.706Z,76.82
2023-03-12T23:10:04.891Z,77.13
2023-03-12T23:12:32.237Z,76.77
2023-03-12T23:14:58.811Z,77.16
2023-03-12T23:17:25.560Z,77.01
2023-03-12T23:19:52.116Z,77.33
2023-03-12T23:22:18.752Z,77.03
2023-03-12T23:24:45.378Z,77.04
2023-03-12T23:27:11.998Z,77.24
2023-03-12T23:29:38.689Z,77.26
2023-03-12T23:32:05.737Z,76.95
2023-03-12T23:34:33.681Z,77.01
2023-03-12T23:37:00.492Z,77.58
2023-03-12T23:39:29.362Z,77.98
2023-03-12T23:41:56.709Z,77.68
2023-03-12T23:44:23.648Z,77.57
2023-03-12T23:46:50.427Z,77.84
2023-03-12T23:49:16.956Z,77.58
2023-03-12T23:51:43.555Z,77.57
2023-03-12T23:54:10.142Z,77.74
2023-03-12T23:56:40.962Z,77.66
2023-03-12T23:59:10.177Z,77.62
